createdAt,value
2018-08-20T00:01:02.792Z,27.04
2018-08-20T00:02:38.589Z,27.00
2018-08-20T00:04:14.031Z,26.93
2018-08-20T00:05:53.569Z,26.76
2018-08-20T00:07:28.803Z,26.57
2018-08-20T00:09:08.008Z,26.66
2018-08-20T00:10:43.406Z,26.66
2018-08-20T00:12:20.553Z,26.55
2018-08-20T00:13:57.458Z,26.62
2018-08-20T00:15:33.401Z,26.75
2018-08-20T00:17:09.937Z,26.68
2018-08-20T00:18:48.595Z,26.70
2018-08-20T00:20:24.238Z,26.33
2018-08-20T00:22:00.183Z,26.50
2018-08-20T00:23:36.042Z,26.54
2018-08-20T00:25:17.847Z,26.54
2018-08-20T00:26:53.359Z,26.60
2018-08-20T00:28:29.081Z,26.63
2018-08-20T00:30:16.679Z,26.55
2018-08-20T00:31:53.268Z,26.44
2018-08-20T00:33:30.165Z,26.27
2018-08-20T00:35:06.483Z,26.14
2018-08-20T00:36:42.455Z,26.07
2018-08-20T00:38:20.007Z,25.91
2018-08-20T00:39:55.857Z,25.64
2018-08-20T00:41:34.865Z,25.48
2018-08-20T00:43:10.617Z,25.44
2018-08-20T00:44:46.506Z,25.40
2018-08-20T00:46:22.121Z,25.39
2018-08-20T00:47:58.390Z,25.38
2018-08-20T00:49:33.816Z,25.34
2018-08-20T00:51:12.228Z,25.36
2018-08-20T00:52:47.519Z,25.32
2018-08-20T00:54:23.861Z,25.38
2018-08-20T00:55:59.893Z,25.36
2018-08-20T00:57:35.286Z,25.32
2018-08-20T00:59:11.768Z,25.27
2018-08-20T01:00:47.743Z,25.08
2018-08-20T01:02:26.431Z,25.08
2018-08-20T01:04:02.448Z,25.09
2018-08-20T01:05:38.462Z,25.06
2018-08-20T01:07:15.713Z,25.14
2018-08-20T01:08:51.065Z,25.23
2018-08-20T01:10:26.717Z,25.28
2018-08-20T01:12:03.140Z,25.32
2018-08-20T01:13:38.446Z,25.28
2018-08-20T01:15:20.135Z,25.11
2018-08-20T01:16:56.174Z,25.07
2018-08-20T01:18:31.495Z,25.05
2018-08-20T01:20:07.126Z,25.25
2018-08-20T01:21:43.212Z,25.25
2018-08-20T01:23:18.516Z,25.23
2018-08-20T01:24:53.843Z,25.21
2018-08-20T01:26:29.120Z,25.24
2018-08-20T01:28:04.779Z,25.16
2018-08-20T01:29:40.083Z,25.13
2018-08-20T01:31:15.866Z,25.09
2018-08-20T01:32:51.365Z,25.12
2018-08-20T01:34:27.194Z,25.14
2018-08-20T01:36:02.615Z,25.11
2018-08-20T01:37:38.019Z,25.04
2018-08-20T01:39:13.819Z,24.98
2018-08-20T01:40:49.465Z,24.84
2018-08-20T01:42:25.369Z,24.79
2018-08-20T01:44:00.594Z,24.70
2018-08-20T01:45:36.339Z,24.77
2018-08-20T01:47:11.764Z,24.47
2018-08-20T01:48:47.642Z,24.41
2018-08-20T01:50:23.099Z,24.27
2018-08-20T01:51:58.651Z,24.15
2018-08-20T01:53:35.277Z,24.14
2018-08-20T01:55:10.511Z,24.15
2018-08-20T01:56:46.050Z,24.22
2018-08-20T01:58:23.654Z,24.34
2018-08-20T01:59:59.388Z,24.31
2018-08-20T02:01:35.046Z,24.38
2018-08-20T02:03:10.723Z,24.50
2018-08-20T02:04:46.141Z,24.59
2018-08-20T02:06:22.512Z,24.75
2018-08-20T02:07:58.420Z,24.73
2018-08-20T02:09:34.360Z,24.67
2018-08-20T02:11:09.661Z,24.60
2018-08-20T02:12:44.969Z,24.55
2018-08-20T02:14:20.233Z,24.63
2018-08-20T02:15:57.929Z,24.71
2018-08-20T02:17:33.328Z,24.78
2018-08-20T02:19:11.030Z,24.80
2018-08-20T02:20:46.425Z,24.71
2018-08-20T02:22:21.685Z,24.64
2018-08-20T02:23:57.306Z,24.66
2018-08-20T02:25:32.748Z,24.38
2018-08-20T02:27:08.631Z,24.22
2018-08-20T02:28:44.670Z,24.00
2018-08-20T02:30:20.149Z,23.99
2018-08-20T02:31:55.755Z,23.92
2018-08-20T02:33:31.299Z,23.84
2018-08-20T02:35:07.434Z,23.81
2018-08-20T02:36:43.202Z,23.81
2018-08-20T02:38:19.189Z,23.79
2018-08-20T02:39:54.459Z,23.82
2018-08-20T02:41:30.528Z,23.84
2018-08-20T02:43:06.531Z,23.83
2018-08-20T02:44:41.730Z,23.80
2018-08-20T02:46:17.606Z,23.81
2018-08-20T02:47:53.081Z,23.83
2018-08-20T02:49:28.598Z,23.88
2018-08-20T02:51:04.322Z,23.96
2018-08-20T02:52:39.636Z,23.98
2018-08-20T02:54:15.062Z,24.09
2018-08-20T02:55:50.543Z,24.15
2018-08-20T02:57:26.216Z,24.22
2018-08-20T02:59:01.642Z,24.30
2018-08-20T03:00:38.121Z,24.30
2018-08-20T03:02:13.430Z,24.28
2018-08-20T03:03:49.945Z,24.35
2018-08-20T03:05:26.412Z,24.28
2018-08-20T03:07:02.088Z,24.12
2018-08-20T03:08:37.400Z,24.10
2018-08-20T03:10:13.825Z,24.07
2018-08-20T03:11:49.072Z,24.06
2018-08-20T03:13:24.277Z,24.14
2018-08-20T03:14:59.747Z,24.04
2018-08-20T03:16:36.279Z,24.03
2018-08-20T03:18:12.093Z,24.17
2018-08-20T03:19:48.830Z,24.26
2018-08-20T03:21:24.466Z,24.20
2018-08-20T03:23:01.519Z,24.26
2018-08-20T03:24:38.079Z,24.28
2018-08-20T03:26:13.678Z,24.19
2018-08-20T03:27:49.539Z,24.28
2018-08-20T03:29:25.183Z,24.37
2018-08-20T03:31:04.538Z,24.19
2018-08-20T03:32:41.079Z,24.36
2018-08-20T03:34:16.687Z,24.47
2018-08-20T03:35:54.494Z,24.47
2018-08-20T03:37:31.675Z,24.39
2018-08-20T03:39:09.829Z,24.29
2018-08-20T03:40:45.082Z,24.08
2018-08-20T03:42:21.478Z,23.96
2018-08-20T03:43:57.189Z,23.92
2018-08-20T03:45:32.694Z,23.92
2018-08-20T03:47:08.013Z,23.73
2018-08-20T03:48:44.128Z,23.75
2018-08-20T03:50:20.485Z,23.66
2018-08-20T03:51:56.634Z,23.70
2018-08-20T03:53:32.310Z,23.67
2018-08-20T03:55:07.598Z,23.72
2018-08-20T03:56:44.146Z,23.74
2018-08-20T03:58:19.973Z,23.76
2018-08-20T03:59:56.196Z,23.78
2018-08-20T04:01:31.729Z,23.80
2018-08-20T04:03:07.361Z,23.75
2018-08-20T04:04:45.537Z,23.82
2018-08-20T04:06:22.537Z,23.87
2018-08-20T04:07:57.770Z,23.93
2018-08-20T04:09:33.445Z,23.95
2018-08-20T04:11:10.528Z,23.82
2018-08-20T04:12:46.263Z,23.95
2018-08-20T04:14:21.761Z,23.91
2018-08-20T04:15:58.825Z,23.95
2018-08-20T04:17:35.082Z,23.90
2018-08-20T04:19:10.526Z,24.08
2018-08-20T04:20:48.703Z,24.09
2018-08-20T04:22:24.071Z,23.92
2018-08-20T04:23:59.373Z,23.81
2018-08-20T04:25:34.934Z,23.64
2018-08-20T04:27:10.258Z,23.63
2018-08-20T04:28:46.435Z,23.35
2018-08-20T04:30:23.490Z,23.19
2018-08-20T04:31:59.273Z,23.37
2018-08-20T04:33:35.931Z,23.67
2018-08-20T04:35:11.165Z,23.79
2018-08-20T04:36:46.952Z,23.60
2018-08-20T04:38:23.634Z,23.25
2018-08-20T04:39:58.917Z,22.93
2018-08-20T04:41:34.195Z,23.24
2018-08-20T04:43:10.358Z,23.29
2018-08-20T04:44:47.922Z,23.37
2018-08-20T04:46:25.261Z,23.65
2018-08-20T04:48:00.680Z,23.54
2018-08-20T04:49:36.398Z,23.27
2018-08-20T04:51:11.880Z,23.53
2018-08-20T04:52:49.283Z,23.72
2018-08-20T04:54:24.595Z,23.62
2018-08-20T04:56:08.414Z,23.54
2018-08-20T04:57:44.774Z,23.54
2018-08-20T04:59:20.950Z,23.74
2018-08-20T05:00:57.107Z,23.84
2018-08-20T05:02:32.734Z,23.70
2018-08-20T05:04:08.464Z,23.45
2018-08-20T05:05:44.517Z,23.60
2018-08-20T05:07:20.652Z,23.21
2018-08-20T05:08:55.875Z,23.31
2018-08-20T05:10:31.134Z,23.52
2018-08-20T05:12:07.347Z,23.63
2018-08-20T05:13:43.885Z,23.72
2018-08-20T05:15:19.519Z,23.90
2018-08-20T05:16:55.774Z,23.94
2018-08-20T05:18:32.030Z,24.01
2018-08-20T05:20:08.316Z,24.00
2018-08-20T05:21:44.524Z,23.88
2018-08-20T05:23:19.734Z,23.80
2018-08-20T05:24:59.583Z,23.57
2018-08-20T05:26:35.032Z,23.70
2018-08-20T05:28:12.816Z,23.84
2018-08-20T05:29:48.179Z,23.91
2018-08-20T05:31:23.980Z,23.77
2018-08-20T05:33:00.297Z,24.05
2018-08-20T05:34:36.613Z,24.03
2018-08-20T05:36:18.293Z,24.06
2018-08-20T05:37:59.215Z,24.30
2018-08-20T05:39:41.592Z,24.41
2018-08-20T05:41:25.127Z,24.52
2018-08-20T05:43:00.753Z,24.54
2018-08-20T05:44:36.021Z,24.54
2018-08-20T05:46:11.961Z,24.18
2018-08-20T05:47:47.623Z,24.13
2018-08-20T05:49:23.106Z,24.19
2018-08-20T05:50:58.363Z,24.05
2018-08-20T05:52:34.193Z,23.99
2018-08-20T05:54:10.383Z,23.93
2018-08-20T05:55:46.237Z,24.08
2018-08-20T05:57:23.119Z,24.17
2018-08-20T05:59:01.151Z,24.26
2018-08-20T06:00:38.293Z,23.81
2018-08-20T06:02:15.979Z,23.57
2018-08-20T06:03:53.422Z,23.46
2018-08-20T06:05:29.197Z,23.81
2018-08-20T06:07:08.570Z,24.09
2018-08-20T06:08:45.261Z,23.89
2018-08-20T06:10:21.351Z,23.75
2018-08-20T06:11:57.286Z,23.90
2018-08-20T06:13:34.903Z,24.10
2018-08-20T06:15:15.645Z,23.57
2018-08-20T06:16:55.246Z,23.53
2018-08-20T06:18:31.703Z,23.82
2018-08-20T06:20:10.535Z,23.85
2018-08-20T06:21:55.973Z,23.99
2018-08-20T06:23:37.005Z,24.08
2018-08-20T06:25:20.562Z,23.92
2018-08-20T06:26:56.103Z,24.10
2018-08-20T06:28:41.880Z,24.24
2018-08-20T06:30:23.316Z,24.15
2018-08-20T06:32:01.207Z,24.22
2018-08-20T06:33:36.674Z,23.95
2018-08-20T06:35:13.241Z,24.08
2018-08-20T06:36:48.647Z,24.14
2018-08-20T06:38:24.503Z,24.34
2018-08-20T06:39:59.937Z,24.39
2018-08-20T06:41:35.243Z,24.31
2018-08-20T06:43:11.231Z,24.25
2018-08-20T06:44:47.222Z,24.19
2018-08-20T06:46:23.544Z,24.35
2018-08-20T06:48:00.466Z,24.40
2018-08-20T06:49:36.417Z,24.39
2018-08-20T06:51:11.730Z,24.29
2018-08-20T06:52:47.875Z,24.25
2018-08-20T06:54:23.221Z,24.09
2018-08-20T06:55:58.879Z,24.06
2018-08-20T06:57:40.083Z,24.04
2018-08-20T07:00:09.669Z,24.31
2018-08-20T07:02:04.291Z,24.24
2018-08-20T07:03:48.712Z,24.15
2018-08-20T07:05:24.400Z,24.22
2018-08-20T07:06:59.656Z,24.25
2018-08-20T07:08:35.911Z,24.22
2018-08-20T07:10:14.718Z,24.07
2018-08-20T07:11:51.075Z,23.68
2018-08-20T07:13:34.743Z,23.71
2018-08-20T07:15:17.269Z,23.56
2018-08-20T07:19:40.357Z,23.95
2018-08-20T07:21:35.514Z,24.25
2018-08-20T07:23:49.375Z,24.22
2018-08-20T07:25:37.203Z,24.21
2018-08-20T07:27:29.262Z,24.03
2018-08-20T07:31:38.297Z,23.89
2018-08-20T07:33:15.533Z,23.81
2018-08-20T07:34:51.064Z,23.44
2018-08-20T07:36:27.599Z,23.72
2018-08-20T07:38:02.795Z,23.96
2018-08-20T07:39:38.082Z,24.09
2018-08-20T07:41:13.618Z,24.14
2018-08-20T07:42:49.506Z,24.34
2018-08-20T07:44:24.764Z,24.38
2018-08-20T07:45:59.972Z,24.31
2018-08-20T07:47:36.481Z,24.16
2018-08-20T07:49:19.524Z,24.10
2018-08-20T07:50:56.333Z,24.07
2018-08-20T07:52:31.550Z,23.98
2018-08-20T07:54:07.413Z,23.90
2018-08-20T07:55:42.749Z,24.01
2018-08-20T07:57:19.064Z,24.07
2018-08-20T07:58:54.249Z,24.08
2018-08-20T08:00:31.585Z,24.05
2018-08-20T08:02:09.052Z,24.16
2018-08-20T08:03:44.372Z,24.17
2018-08-20T08:05:20.456Z,24.01
2018-08-20T08:06:57.222Z,24.05
2018-08-20T08:08:32.674Z,24.18
2018-08-20T08:10:11.855Z,24.21
2018-08-20T08:11:47.209Z,24.21
2018-08-20T08:13:23.465Z,24.20
2018-08-20T08:14:59.508Z,24.13
2018-08-20T08:16:35.640Z,24.20
2018-08-20T08:18:10.951Z,24.29
2018-08-20T08:19:50.597Z,24.17
2018-08-20T08:21:26.326Z,23.97
2018-08-20T08:23:01.530Z,23.93
2018-08-20T08:24:37.075Z,23.87
2018-08-20T08:26:12.736Z,23.99
2018-08-20T08:27:48.693Z,24.01
2018-08-20T08:29:24.772Z,23.76
2018-08-20T08:31:02.066Z,23.34
2018-08-20T08:32:37.875Z,23.43
2018-08-20T08:34:13.672Z,23.76
2018-08-20T08:35:50.795Z,23.96
2018-08-20T08:37:26.115Z,24.09
2018-08-20T08:39:03.852Z,24.11
2018-08-20T08:40:40.240Z,24.16
2018-08-20T08:42:15.899Z,24.03
2018-08-20T08:43:51.690Z,23.87
2018-08-20T08:45:28.714Z,23.92
2018-08-20T08:47:04.134Z,24.17
2018-08-20T08:48:41.953Z,24.18
2018-08-20T08:50:18.200Z,24.11
2018-08-20T08:51:53.793Z,24.06
2018-08-20T08:53:30.087Z,24.06
2018-08-20T08:55:05.803Z,23.65
2018-08-20T08:56:42.881Z,23.58
2018-08-20T08:58:18.449Z,23.82
2018-08-20T08:59:53.623Z,24.05
2018-08-20T09:01:29.000Z,24.09
2018-08-20T09:03:04.209Z,23.98
2018-08-20T09:04:43.287Z,24.09
2018-08-20T09:06:18.690Z,24.10
2018-08-20T09:08:04.358Z,24.03
2018-08-20T09:09:39.632Z,24.00
2018-08-20T09:11:16.161Z,23.99
2018-08-20T09:12:53.100Z,24.03
2018-08-20T09:14:30.473Z,24.06
2018-08-20T09:16:08.629Z,24.14
2018-08-20T09:17:44.716Z,24.14
2018-08-20T09:19:20.812Z,23.99
2018-08-20T09:20:56.744Z,23.69
2018-08-20T09:22:32.519Z,23.80
2018-08-20T09:24:08.683Z,23.81
2018-08-20T09:25:44.821Z,23.91
2018-08-20T09:27:20.077Z,24.01
2018-08-20T09:28:57.019Z,24.13
2018-08-20T09:30:32.308Z,24.14
2018-08-20T09:32:08.105Z,24.07
2018-08-20T09:33:43.329Z,24.05
2018-08-20T09:35:19.525Z,24.08
2018-08-20T09:36:54.799Z,23.95
2018-08-20T09:38:31.380Z,23.66
2018-08-20T09:40:10.680Z,23.53
2018-08-20T09:41:46.309Z,23.51
2018-08-20T09:43:21.548Z,23.51
2018-08-20T09:44:57.335Z,23.56
2018-08-20T09:46:32.608Z,23.66
2018-08-20T09:48:08.410Z,23.75
2018-08-20T09:49:43.680Z,23.86
2018-08-20T09:51:18.909Z,23.93
2018-08-20T09:52:55.098Z,23.78
2018-08-20T09:54:31.506Z,23.80
2018-08-20T09:56:08.517Z,23.77
2018-08-20T09:57:43.838Z,23.77
2018-08-20T09:59:19.057Z,23.76
2018-08-20T10:00:54.581Z,23.76
2018-08-20T10:02:31.544Z,23.71
2018-08-20T10:04:06.939Z,23.63
2018-08-20T10:05:42.433Z,23.65
2018-08-20T10:07:22.067Z,23.62
2018-08-20T10:09:00.191Z,23.75
2018-08-20T10:10:38.480Z,23.93
2018-08-20T10:12:13.928Z,23.93
2018-08-20T10:13:50.922Z,23.93
2018-08-20T10:15:30.630Z,24.02
2018-08-20T10:17:07.150Z,23.66
2018-08-20T10:18:44.011Z,23.59
2018-08-20T10:20:20.554Z,23.69
2018-08-20T10:21:55.835Z,23.82
2018-08-20T10:23:32.610Z,23.56
2018-08-20T10:25:08.426Z,23.65
2018-08-20T10:26:46.816Z,23.89
2018-08-20T10:28:22.150Z,24.07
2018-08-20T10:29:58.168Z,24.36
2018-08-20T10:31:36.067Z,24.66
2018-08-20T10:33:14.118Z,24.70
2018-08-20T10:34:50.092Z,24.39
2018-08-20T10:36:25.319Z,24.29
2018-08-20T10:38:02.093Z,24.54
2018-08-20T10:39:39.097Z,24.47
2018-08-20T10:41:14.301Z,24.40
2018-08-20T10:42:52.666Z,24.70
2018-08-20T10:44:29.072Z,24.70
2018-08-20T10:46:25.756Z,24.78
2018-08-20T10:48:02.646Z,25.01
2018-08-20T10:51:11.262Z,24.86
2018-08-20T10:52:54.735Z,25.04
2018-08-20T10:54:30.387Z,25.01
2018-08-20T10:56:06.361Z,24.95
2018-08-20T10:57:43.303Z,24.91
2018-08-20T10:59:18.522Z,24.39
2018-08-20T11:00:56.541Z,24.01
2018-08-20T11:02:32.814Z,23.95
2018-08-20T11:04:09.920Z,24.33
2018-08-20T11:05:45.276Z,24.73
2018-08-20T11:07:22.109Z,25.14
2018-08-20T11:08:58.975Z,25.49
2018-08-20T11:10:34.701Z,25.74
2018-08-20T11:12:09.971Z,25.98
2018-08-20T11:13:45.286Z,25.74
2018-08-20T11:15:23.265Z,25.57
2018-08-20T11:16:58.797Z,25.93
2018-08-20T11:18:36.133Z,26.17
2018-08-20T11:20:15.275Z,26.23
2018-08-20T11:21:50.965Z,26.16
2018-08-20T11:23:26.248Z,26.17
2018-08-20T11:25:01.553Z,25.87
2018-08-20T11:26:37.543Z,25.88
2018-08-20T11:28:14.859Z,25.94
2018-08-20T11:29:51.158Z,26.12
2018-08-20T11:31:28.482Z,26.27
2018-08-20T11:33:05.234Z,26.41
2018-08-20T11:34:41.745Z,26.42
2018-08-20T11:36:18.523Z,26.41
2018-08-20T11:37:53.979Z,26.50
2018-08-20T11:39:33.555Z,26.47
2018-08-20T11:41:12.173Z,26.57
2018-08-20T11:42:49.988Z,26.80
2018-08-20T11:44:27.830Z,26.94
2018-08-20T11:46:05.519Z,27.20
2018-08-20T11:47:42.545Z,27.31
2018-08-20T11:49:22.411Z,27.21
2018-08-20T11:51:00.177Z,27.11
2018-08-20T11:52:35.542Z,27.05
2018-08-20T11:54:15.254Z,27.29
2018-08-20T11:57:35.604Z,27.56
2018-08-20T11:59:15.210Z,27.82
2018-08-20T12:00:52.394Z,27.98
2018-08-20T12:02:29.972Z,27.96
2018-08-20T12:04:06.588Z,28.03
2018-08-20T12:05:42.772Z,28.16
2018-08-20T12:07:22.874Z,28.13
2018-08-20T12:09:02.498Z,28.18
2018-08-20T12:10:43.265Z,28.34
2018-08-20T12:12:25.135Z,28.03
2018-08-20T12:14:03.400Z,27.47
2018-08-20T12:15:40.582Z,27.67
2018-08-20T12:17:19.960Z,27.90
2018-08-20T12:18:55.174Z,28.03
2018-08-20T12:20:32.525Z,27.85
2018-08-20T12:22:10.049Z,27.88
2018-08-20T12:23:50.042Z,28.20
2018-08-20T12:25:25.326Z,28.36
2018-08-20T12:27:02.303Z,28.45
2018-08-20T12:28:40.654Z,28.35
2018-08-20T12:30:21.853Z,28.36
2018-08-20T12:31:58.166Z,28.23
2018-08-20T12:33:40.547Z,28.35
2018-08-20T12:35:20.410Z,28.47
2018-08-20T12:37:04.221Z,28.42
2018-08-20T12:40:28.813Z,28.33
2018-08-20T12:42:07.292Z,28.34
2018-08-20T12:43:44.529Z,28.48
2018-08-20T12:45:21.267Z,28.61
2018-08-20T12:46:56.570Z,28.84
2018-08-20T12:48:32.011Z,28.68
2018-08-20T12:50:20.867Z,28.70
2018-08-20T12:53:27.767Z,28.99
2018-08-20T12:55:03.165Z,28.92
2018-08-20T12:56:40.855Z,28.80
2018-08-20T12:58:18.609Z,28.76
2018-08-20T12:59:57.612Z,28.67
2018-08-20T13:01:37.231Z,28.47
2018-08-20T13:03:22.639Z,28.39
2018-08-20T13:04:59.698Z,28.43
2018-08-20T13:06:36.212Z,28.28
2018-08-20T13:08:14.306Z,28.39
2018-08-20T13:09:49.642Z,28.25
2018-08-20T13:11:30.501Z,28.17
2018-08-20T13:13:06.657Z,28.10
2018-08-20T13:14:42.199Z,27.90
2018-08-20T13:16:18.540Z,27.62
2018-08-20T13:17:55.580Z,27.51
2018-08-20T13:19:32.568Z,27.45
2018-08-20T13:21:11.191Z,27.46
2018-08-20T13:22:46.544Z,27.61
2018-08-20T13:24:22.468Z,27.69
2018-08-20T13:25:58.563Z,27.60
2018-08-20T13:27:36.348Z,27.38
2018-08-20T13:29:12.073Z,27.15
2018-08-20T13:30:47.634Z,26.82
2018-08-20T13:32:24.491Z,26.53
2018-08-20T13:33:59.842Z,26.37
2018-08-20T13:35:35.107Z,26.10
2018-08-20T13:37:13.676Z,26.02
2018-08-20T13:38:49.713Z,25.95
2018-08-20T13:40:25.515Z,26.00
2018-08-20T13:42:02.181Z,26.07
2018-08-20T13:43:38.086Z,25.83
2018-08-20T13:45:17.415Z,25.81
2018-08-20T13:47:03.870Z,25.71
2018-08-20T13:48:45.479Z,25.62
2018-08-20T13:50:29.471Z,25.78
2018-08-20T13:52:14.163Z,25.89
2018-08-20T13:53:57.829Z,25.86
2018-08-20T13:55:33.329Z,25.83
2018-08-20T13:57:08.680Z,25.86
2018-08-20T13:58:44.837Z,25.60
2018-08-20T14:00:22.390Z,25.82
2018-08-20T14:01:58.522Z,25.89
2018-08-20T14:03:35.379Z,25.79
2018-08-20T14:05:11.723Z,25.76
2018-08-20T14:06:47.564Z,25.76
2018-08-20T14:08:24.553Z,25.84
2018-08-20T14:10:02.168Z,26.01
2018-08-20T14:11:38.964Z,26.16
2018-08-20T14:13:16.041Z,26.31
2018-08-20T14:14:51.809Z,26.44
2018-08-20T14:16:31.110Z,26.55
2018-08-20T14:18:08.878Z,26.58
2018-08-20T14:19:52.677Z,26.63
2018-08-20T14:21:28.484Z,26.69
2018-08-20T14:23:07.320Z,26.52
2018-08-20T14:24:42.604Z,26.50
2018-08-20T14:26:18.874Z,26.62
2018-08-20T14:27:56.273Z,26.68
2018-08-20T14:29:35.183Z,26.75
2018-08-20T14:31:20.383Z,26.77
2018-08-20T14:32:59.235Z,26.84
2018-08-20T14:34:40.762Z,26.76
2018-08-20T14:36:20.387Z,26.69
2018-08-20T14:37:56.595Z,26.73
2018-08-20T14:39:32.576Z,26.70
2018-08-20T14:41:15.267Z,26.67
2018-08-20T14:42:51.192Z,26.59
2018-08-20T14:44:28.395Z,26.63
2018-08-20T14:46:20.156Z,26.58
2018-08-20T14:48:06.832Z,26.39
2018-08-20T14:49:49.943Z,26.29
2018-08-20T14:51:25.622Z,26.39
2018-08-20T14:53:04.795Z,26.28
2018-08-20T14:54:40.842Z,26.36
2018-08-20T14:56:16.495Z,26.45
2018-08-20T14:58:02.215Z,26.54
2018-08-20T14:59:38.249Z,26.29
2018-08-20T15:01:13.876Z,26.34
2018-08-20T15:02:49.493Z,26.50
2018-08-20T15:06:05.794Z,26.60
2018-08-20T15:07:43.242Z,26.71
2018-08-20T15:09:28.151Z,26.77
2018-08-20T15:11:05.552Z,26.83
2018-08-20T15:12:41.537Z,26.89
2018-08-20T15:14:20.675Z,26.88
2018-08-20T15:15:57.779Z,26.89
2018-08-20T15:17:35.129Z,26.81
2018-08-20T15:19:13.447Z,26.85
2018-08-20T15:20:49.913Z,26.84
2018-08-20T15:22:28.718Z,26.80
2018-08-20T15:24:05.645Z,26.70
2018-08-20T15:25:41.136Z,26.50
2018-08-20T15:27:20.667Z,26.50
2018-08-20T15:28:55.945Z,26.55
2018-08-20T15:30:35.902Z,26.66
2018-08-20T15:32:12.373Z,26.75
2018-08-20T15:33:47.631Z,26.73
2018-08-20T15:35:23.763Z,26.67
2018-08-20T15:37:00.081Z,26.61
2018-08-20T15:38:37.572Z,26.65
2018-08-20T15:40:13.588Z,26.75
2018-08-20T15:41:57.636Z,26.82
2018-08-20T15:43:40.564Z,26.88
2018-08-20T15:45:21.686Z,26.96
2018-08-20T15:46:58.257Z,27.03
2018-08-20T15:48:35.377Z,27.04
2018-08-20T15:50:13.429Z,26.93
2018-08-20T15:52:04.734Z,26.84
2018-08-20T15:53:42.735Z,26.78
2018-08-20T15:55:19.027Z,26.75
2018-08-20T15:56:56.463Z,26.68
2018-08-20T15:58:34.280Z,26.76
2018-08-20T16:00:20.682Z,26.76
2018-08-20T16:01:58.562Z,26.93
2018-08-20T16:03:34.038Z,26.86
2018-08-20T16:05:11.567Z,26.86
2018-08-20T16:06:50.230Z,26.88
2018-08-20T16:08:28.143Z,26.85
2018-08-20T16:10:06.204Z,26.94
2018-08-20T16:11:43.255Z,27.00
2018-08-20T16:13:21.608Z,26.94
2018-08-20T16:15:01.470Z,26.99
2018-08-20T16:16:41.235Z,26.99
2018-08-20T16:18:17.254Z,26.99
2018-08-20T16:19:54.185Z,26.97
2018-08-20T16:21:33.231Z,26.83
2018-08-20T16:23:18.340Z,26.81
2018-08-20T16:24:54.994Z,26.74
2018-08-20T16:26:33.863Z,26.58
2018-08-20T16:28:11.073Z,26.51
2018-08-20T16:29:49.116Z,26.41
2018-08-20T16:31:34.886Z,26.35
2018-08-20T16:33:14.428Z,26.38
2018-08-20T16:34:54.594Z,26.41
2018-08-20T16:36:36.174Z,26.44
2018-08-20T16:38:22.716Z,26.48
2018-08-20T16:40:10.039Z,26.45
2018-08-20T16:41:45.452Z,26.46
2018-08-20T16:43:27.206Z,26.41
2018-08-20T16:45:06.991Z,26.37
2018-08-20T16:46:52.985Z,26.26
2018-08-20T16:48:30.168Z,26.30
2018-08-20T16:50:17.666Z,26.36
2018-08-20T16:51:57.803Z,26.40
2018-08-20T16:53:43.497Z,26.47
2018-08-20T16:55:23.521Z,26.47
2018-08-20T16:57:09.670Z,26.53
2018-08-20T16:58:48.515Z,26.51
2018-08-20T17:00:29.111Z,26.44
2018-08-20T17:02:11.322Z,26.42
2018-08-20T17:03:56.204Z,26.61
2018-08-20T17:05:41.601Z,26.64
2018-08-20T17:07:20.669Z,26.74
2018-08-20T17:08:59.888Z,26.84
2018-08-20T17:10:36.549Z,26.77
2018-08-20T17:12:14.074Z,26.64
2018-08-20T17:13:51.652Z,26.73
2018-08-20T17:15:44.641Z,26.90
2018-08-20T17:17:25.818Z,27.01
2018-08-20T17:19:07.461Z,27.11
2018-08-20T17:20:58.399Z,27.09
2018-08-20T17:22:39.953Z,27.02
2018-08-20T17:24:26.542Z,26.73
2018-08-20T17:26:03.643Z,26.82
2018-08-20T17:27:42.855Z,26.97
2018-08-20T17:29:19.578Z,26.96
2018-08-20T17:31:03.652Z,26.80
2018-08-20T17:32:40.687Z,26.88
2018-08-20T17:34:17.776Z,26.93
2018-08-20T17:35:57.392Z,27.00
2018-08-20T17:37:35.799Z,27.04
2018-08-20T17:39:14.337Z,27.09
2018-08-20T17:40:53.702Z,27.02
2018-08-20T17:42:31.258Z,27.03
2018-08-20T17:44:08.533Z,27.04
2018-08-20T17:45:44.651Z,27.09
2018-08-20T17:47:25.847Z,27.14
2018-08-20T17:49:01.907Z,27.08
2018-08-20T17:50:45.606Z,26.99
2018-08-20T17:52:23.551Z,26.94
2018-08-20T17:54:00.567Z,26.94
2018-08-20T17:55:37.756Z,27.05
2018-08-20T17:57:14.224Z,27.10
2018-08-20T17:59:02.550Z,27.01
2018-08-20T18:00:50.441Z,27.17
2018-08-20T18:02:30.728Z,27.10
2018-08-20T18:04:08.448Z,27.02
2018-08-20T18:05:51.000Z,26.95
2018-08-20T18:07:31.592Z,27.04
2018-08-20T18:09:16.910Z,27.01
2018-08-20T18:10:59.686Z,27.09
2018-08-20T18:12:50.981Z,27.00
2018-08-20T18:14:53.981Z,26.91
2018-08-20T18:16:55.846Z,26.96
2018-08-20T18:18:33.397Z,26.37
2018-08-20T18:20:09.331Z,26.32
2018-08-20T18:21:45.201Z,26.32
2018-08-20T18:23:22.932Z,26.26
2018-08-20T18:24:58.804Z,25.98
2018-08-20T18:26:43.674Z,26.18
2018-08-20T18:28:21.717Z,26.63
2018-08-20T18:29:57.271Z,26.62
2018-08-20T18:31:33.465Z,26.76
2018-08-20T18:33:10.945Z,26.79
2018-08-20T18:34:49.037Z,26.91
2018-08-20T18:36:28.500Z,27.08
2018-08-20T18:38:08.405Z,27.11
2018-08-20T18:39:50.681Z,27.02
2018-08-20T18:42:21.427Z,27.05
2018-08-20T18:44:00.232Z,26.90
2018-08-20T18:45:36.048Z,26.97
2018-08-20T18:47:16.929Z,27.01
2018-08-20T18:48:53.599Z,27.08
2018-08-20T18:50:29.963Z,27.22
2018-08-20T18:52:11.510Z,27.18
2018-08-20T18:53:56.329Z,27.13
2018-08-20T18:55:34.987Z,27.16
2018-08-20T18:57:10.797Z,27.17
2018-08-20T18:58:51.657Z,27.13
2018-08-20T19:00:31.238Z,27.11
2018-08-20T19:02:12.050Z,27.10
2018-08-20T19:04:07.352Z,27.08
2018-08-20T19:06:02.925Z,27.03
2018-08-20T19:07:42.643Z,26.95
2018-08-20T19:09:19.745Z,26.94
2018-08-20T19:10:59.325Z,26.98
2018-08-20T19:12:39.153Z,27.07
2018-08-20T19:14:17.727Z,27.04
2018-08-20T19:15:54.042Z,27.12
2018-08-20T19:17:30.382Z,27.05
2018-08-20T19:19:11.725Z,27.04
2018-08-20T19:20:50.167Z,27.02
2018-08-20T19:22:29.711Z,27.00
2018-08-20T19:24:09.488Z,26.94
2018-08-20T19:25:48.022Z,26.85
2018-08-20T19:27:31.312Z,26.90
2018-08-20T19:29:29.449Z,26.90
2018-08-20T19:31:08.243Z,26.95
2018-08-20T19:32:44.232Z,26.98
2018-08-20T19:34:19.714Z,27.03
2018-08-20T19:35:55.533Z,27.01
2018-08-20T19:37:32.009Z,27.05
2018-08-20T19:39:12.391Z,27.01
2018-08-20T19:40:53.645Z,27.02
2018-08-20T19:42:34.558Z,26.89
2018-08-20T19:44:12.216Z,26.97
2018-08-20T19:45:52.352Z,27.03
2018-08-20T19:47:28.555Z,27.09
2018-08-20T19:49:08.816Z,27.07
2018-08-20T19:50:45.364Z,27.15
2018-08-20T19:52:21.136Z,27.05
2018-08-20T19:54:01.253Z,26.99
2018-08-20T19:55:36.811Z,26.92
2018-08-20T19:57:12.704Z,26.88
2018-08-20T19:58:51.641Z,26.86
2018-08-20T20:00:48.724Z,26.86
2018-08-20T20:02:26.654Z,26.82
2018-08-20T20:04:04.642Z,26.75
2018-08-20T20:05:41.547Z,26.72
2018-08-20T20:07:22.289Z,26.66
2018-08-20T20:09:01.291Z,26.64
2018-08-20T20:10:40.998Z,26.54
2018-08-20T20:12:17.508Z,26.55
2018-08-20T20:13:57.382Z,26.58
2018-08-20T20:15:40.558Z,26.71
2018-08-20T20:17:24.199Z,26.78
2018-08-20T20:19:03.797Z,26.78
2018-08-20T20:20:39.676Z,26.80
2018-08-20T20:22:18.650Z,26.75
2018-08-20T20:23:57.859Z,26.71
2018-08-20T20:25:37.132Z,26.66
2018-08-20T20:27:13.651Z,26.71
2018-08-20T20:28:58.023Z,26.83
2018-08-20T20:30:35.201Z,26.79
2018-08-20T20:32:11.441Z,26.91
2018-08-20T20:33:48.679Z,26.89
2018-08-20T20:35:27.900Z,26.87
2018-08-20T20:37:04.054Z,26.81
2018-08-20T20:38:41.217Z,26.82
2018-08-20T20:40:20.151Z,26.76
2018-08-20T20:41:58.342Z,26.78
2018-08-20T20:43:38.839Z,26.66
2018-08-20T20:45:17.094Z,26.71
2018-08-20T20:46:53.766Z,26.64
2018-08-20T20:48:31.397Z,26.66
2018-08-20T20:50:08.478Z,26.54
2018-08-20T20:51:46.437Z,26.57
2018-08-20T20:53:22.630Z,26.64
2018-08-20T20:54:58.558Z,26.61
2018-08-20T20:56:37.700Z,26.57
2018-08-20T20:58:22.084Z,26.64
2018-08-20T20:59:57.680Z,26.77
2018-08-20T21:01:33.507Z,26.74
2018-08-20T21:03:11.972Z,26.68
2018-08-20T21:04:49.324Z,26.79
2018-08-20T21:06:25.683Z,26.85
2018-08-20T21:08:01.397Z,26.87
2018-08-20T21:09:50.370Z,26.88
2018-08-20T21:11:30.011Z,26.94
2018-08-20T21:13:08.669Z,26.99
2018-08-20T21:14:45.591Z,26.98
2018-08-20T21:16:26.430Z,26.99